createdAt,value
2023-04-27T00:00:31.012Z,97887.22
2023-04-27T00:03:16.795Z,98080.53
2023-04-27T00:06:02.590Z,97878.97
2023-04-27T00:08:47.860Z,98072.44
2023-04-27T00:11:33.350Z,98070.97
2023-04-27T00:14:18.610Z,98080.88
2023-04-27T00:17:04.233Z,97895.84
2023-04-27T00:19:49.531Z,98032.03
2023-04-27T00:22:34.898Z,98020.28
2023-04-27T00:25:20.320Z,97896.59
2023-04-27T00:28:05.764Z,97899.69
2023-04-27T00:30:54.306Z,97861.34
2023-04-27T00:33:39.785Z,98031.13
2023-04-27T00:36:24.978Z,97882.44
2023-04-27T00:39:10.667Z,98057.00
2023-04-27T00:41:56.555Z,97952.66
2023-04-27T00:44:42.094Z,98055.13
2023-04-27T00:47:29.198Z,98016.59
2023-04-27T00:50:14.959Z,97888.44
2023-04-27T00:53:02.020Z,97905.91
2023-04-27T00:55:47.296Z,97969.22
2023-04-27T00:58:33.048Z,98023.94
2023-04-27T01:01:20.649Z,98074.19
2023-04-27T01:04:06.534Z,98014.34
2023-04-27T01:06:52.402Z,97971.38
2023-04-27T01:09:37.824Z,98085.94
2023-04-27T01:12:23.218Z,97875.16
2023-04-27T01:15:09.586Z,98068.66
2023-04-27T01:18:02.140Z,98070.53
2023-04-27T01:20:48.014Z,98060.97
2023-04-27T01:23:33.620Z,97892.09
2023-04-27T01:26:19.104Z,97977.41
2023-04-27T01:29:04.511Z,98076.75
2023-04-27T01:31:49.958Z,97996.28
2023-04-27T01:34:35.312Z,97976.06
2023-04-27T01:37:20.687Z,97882.06
2023-04-27T01:40:06.718Z,98064.59
2023-04-27T01:42:51.836Z,97484.75
2023-04-27T01:45:37.006Z,98066.97
2023-04-27T01:48:22.880Z,98038.16
2023-04-27T01:51:09.022Z,97893.47
2023-04-27T01:53:54.582Z,98054.31
2023-04-27T01:56:39.812Z,97885.19
2023-04-27T01:59:25.180Z,97877.25
2023-04-27T02:02:10.444Z,97868.25
2023-04-27T02:04:56.341Z,97873.53
2023-04-27T02:07:41.883Z,98081.72
2023-04-27T02:10:27.255Z,98056.81
2023-04-27T02:13:15.631Z,98048.00
2023-04-27T02:16:04.219Z,98022.94
2023-04-27T02:18:49.882Z,98034.94
2023-04-27T02:21:35.126Z,98019.38
2023-04-27T02:24:20.424Z,97960.41
2023-04-27T02:27:06.162Z,98041.22
2023-04-27T02:29:52.269Z,97969.72
2023-04-27T02:32:38.451Z,98069.50
2023-04-27T02:35:23.996Z,97889.13
2023-04-27T02:38:10.403Z,97907.13
2023-04-27T02:40:57.304Z,98049.06
2023-04-27T02:43:42.643Z,97877.34
2023-04-27T02:46:28.038Z,98079.22
2023-04-27T02:49:13.569Z,97941.41
2023-04-27T02:51:59.256Z,97903.94
2023-04-27T02:54:44.571Z,98031.75
2023-04-27T02:57:29.888Z,98036.53
2023-04-27T03:00:15.528Z,97899.50
2023-04-27T03:03:01.640Z,98097.47
2023-04-27T03:05:47.140Z,98098.63
2023-04-27T03:08:32.317Z,98100.09
2023-04-27T03:11:17.810Z,98082.09
2023-04-27T03:14:03.853Z,98100.09
2023-04-27T03:16:49.542Z,98057.44
2023-04-27T03:19:35.038Z,98127.56
2023-04-27T03:22:20.458Z,98095.28
2023-04-27T03:25:06.877Z,98112.53
2023-04-27T03:27:52.381Z,98140.22
2023-04-27T03:30:40.493Z,98112.41
2023-04-27T03:33:28.188Z,98120.19
2023-04-27T03:36:13.525Z,98053.94
2023-04-27T03:39:00.462Z,98120.41
2023-04-27T03:41:46.462Z,98069.44
2023-04-27T03:44:33.550Z,98100.03
2023-04-27T03:47:19.101Z,98112.78
2023-04-27T03:50:05.557Z,97962.09
2023-04-27T03:52:51.081Z,98002.06
2023-04-27T03:55:44.048Z,98013.09
2023-04-27T03:58:30.904Z,98155.06
2023-04-27T04:01:32.048Z,98005.69
2023-04-27T04:04:17.748Z,97992.66
2023-04-27T04:07:03.357Z,98161.63
2023-04-27T04:09:48.990Z,97977.75
2023-04-27T04:12:34.229Z,98144.31
2023-04-27T04:15:20.364Z,97976.56
2023-04-27T04:18:07.525Z,98131.03
2023-04-27T04:20:53.240Z,98123.66
2023-04-27T04:23:41.201Z,97992.03
2023-04-27T04:26:27.334Z,98177.06
2023-04-27T04:29:13.175Z,98131.81
2023-04-27T04:31:59.094Z,98167.13
2023-04-27T04:34:49.431Z,98114.66
2023-04-27T04:37:38.215Z,98184.75
2023-04-27T04:40:23.713Z,97995.88
2023-04-27T04:43:09.088Z,98160.06
2023-04-27T04:45:54.369Z,98187.34
2023-04-27T04:48:39.724Z,98220.72
2023-04-27T04:51:25.032Z,98043.16
2023-04-27T04:54:10.554Z,98005.63
2023-04-27T04:56:56.473Z,97974.03
2023-04-27T04:59:44.268Z,98003.84
2023-04-27T05:02:30.255Z,98048.34
2023-04-27T05:05:16.176Z,98117.91
2023-04-27T05:08:01.563Z,98106.56
2023-04-27T05:10:51.311Z,98013.84
2023-04-27T05:13:39.270Z,98203.06
2023-04-27T05:16:26.580Z,98046.94
2023-04-27T05:19:12.520Z,98064.22
2023-04-27T05:21:58.833Z,98033.56
2023-04-27T05:24:44.601Z,98213.56
2023-04-27T05:27:31.047Z,98222.78
2023-04-27T05:30:16.773Z,98207.53
2023-04-27T05:33:05.224Z,98218.44
2023-04-27T05:35:51.434Z,98216.97
2023-04-27T05:38:40.325Z,98028.81
2023-04-27T05:41:25.589Z,98223.19
2023-04-27T05:44:11.240Z,98231.66
2023-04-27T05:46:57.165Z,98190.66
2023-04-27T05:49:42.623Z,98241.56
2023-04-27T05:52:31.058Z,98218.19
2023-04-27T05:55:16.713Z,98068.28
2023-04-27T05:58:08.427Z,98200.31
2023-04-27T06:00:54.875Z,98243.81
2023-04-27T06:03:40.479Z,98070.88
2023-04-27T06:06:26.349Z,98065.22
2023-04-27T06:09:12.020Z,98235.69
2023-04-27T06:12:00.527Z,98268.41
2023-04-27T06:14:46.245Z,98231.22
2023-04-27T06:17:31.566Z,98096.91
2023-04-27T06:20:17.116Z,98294.38
2023-04-27T06:23:02.577Z,98082.47
2023-04-27T06:25:47.915Z,98260.97
2023-04-27T06:28:33.941Z,98090.53
2023-04-27T06:31:19.530Z,98118.47
2023-04-27T06:34:04.874Z,98193.53
2023-04-27T06:36:50.217Z,98101.75
2023-04-27T06:39:36.919Z,98147.84
2023-04-27T06:42:22.672Z,98285.22
2023-04-27T06:45:08.331Z,98295.69
2023-04-27T06:47:54.108Z,98234.06
2023-04-27T06:50:39.759Z,98125.44
2023-04-27T06:53:25.477Z,98218.25
2023-04-27T06:56:11.989Z,98110.34
2023-04-27T06:58:57.296Z,98119.34
2023-04-27T07:01:42.663Z,98305.19
2023-04-27T07:04:28.528Z,98287.41
2023-04-27T07:07:14.209Z,98283.53
2023-04-27T07:09:59.487Z,98296.84
2023-04-27T07:12:44.884Z,98335.31
2023-04-27T07:15:33.432Z,98291.03
2023-04-27T07:18:18.908Z,98331.84
2023-04-27T07:21:04.413Z,98290.25
2023-04-27T07:23:49.870Z,98160.72
2023-04-27T07:26:36.544Z,98148.41
2023-04-27T07:29:26.841Z,98288.28
2023-04-27T07:32:12.800Z,98296.72
2023-04-27T07:34:58.706Z,98267.63
2023-04-27T07:37:45.617Z,98121.81
2023-04-27T07:40:32.861Z,98249.66
2023-04-27T07:43:19.116Z,98117.28
2023-04-27T07:46:04.507Z,98283.00
2023-04-27T07:48:50.796Z,98274.69
2023-04-27T07:51:36.363Z,98119.88
2023-04-27T07:54:21.732Z,98268.19
2023-04-27T07:57:11.852Z,98284.84
2023-04-27T07:59:57.696Z,98297.38
2023-04-27T08:02:43.141Z,98285.63
2023-04-27T08:05:29.847Z,98288.16
2023-04-27T08:08:16.110Z,98130.75
2023-04-27T08:11:01.500Z,98264.44
2023-04-27T08:13:46.793Z,98311.03
2023-04-27T08:16:32.433Z,98124.56
2023-04-27T08:19:18.503Z,98250.13
2023-04-27T08:22:04.125Z,98291.03
2023-04-27T08:24:49.428Z,98294.44
2023-04-27T08:27:40.590Z,98209.69
2023-04-27T08:30:26.093Z,98276.91
2023-04-27T08:33:11.998Z,98297.09
2023-04-27T08:35:57.613Z,98291.84
2023-04-27T08:38:43.131Z,98124.53
2023-04-27T08:41:28.731Z,98269.94
2023-04-27T08:44:15.061Z,98214.38
2023-04-27T08:47:01.048Z,98129.44
2023-04-27T08:49:46.890Z,98257.03
2023-04-27T08:52:32.488Z,98170.50
2023-04-27T08:55:18.007Z,98278.66
2023-04-27T08:58:04.226Z,98186.59
2023-04-27T09:00:52.515Z,98263.25
2023-04-27T09:03:38.655Z,98312.16
2023-04-27T09:06:35.041Z,98106.88
2023-04-27T09:09:24.515Z,98300.09
2023-04-27T09:12:20.959Z,98139.47
2023-04-27T09:15:08.604Z,98124.88
2023-04-27T09:17:56.480Z,98128.84
2023-04-27T09:20:46.115Z,98291.88
2023-04-27T09:23:33.914Z,98262.00
2023-04-27T09:26:28.697Z,98250.69
2023-04-27T09:29:14.506Z,98286.84
2023-04-27T09:32:00.919Z,98280.69
2023-04-27T09:34:47.007Z,98142.31
2023-04-27T09:37:32.513Z,98104.25
2023-04-27T09:40:19.805Z,98297.94
2023-04-27T09:43:06.619Z,98196.41
2023-04-27T09:45:52.211Z,98271.22
2023-04-27T09:48:39.249Z,98248.72
2023-04-27T09:51:24.710Z,98118.56
2023-04-27T09:54:13.501Z,98200.13
2023-04-27T09:57:18.102Z,98275.28
2023-04-27T10:00:12.773Z,98298.91
2023-04-27T10:03:29.867Z,98289.13
2023-04-27T10:06:46.749Z,98294.19
2023-04-27T10:09:37.451Z,98104.91
2023-04-27T10:12:36.226Z,98097.72
2023-04-27T10:15:27.180Z,98260.78
2023-04-27T10:18:12.993Z,98120.56
2023-04-27T10:21:10.070Z,98238.22
2023-04-27T10:23:56.002Z,98139.09
2023-04-27T10:26:47.015Z,98167.06
2023-04-27T10:29:42.107Z,98218.75
2023-04-27T10:32:29.214Z,98098.50
2023-04-27T10:35:14.617Z,98177.25
2023-04-27T10:38:08.606Z,98217.94
2023-04-27T10:41:02.162Z,98108.59
2023-04-27T10:43:47.889Z,98232.34
2023-04-27T10:46:36.107Z,98092.16
2023-04-27T10:49:22.740Z,98272.50
2023-04-27T10:52:08.497Z,98192.66
2023-04-27T10:54:53.979Z,98261.31
2023-04-27T10:57:47.309Z,98228.06
2023-04-27T11:00:37.392Z,98130.41
2023-04-27T11:03:24.326Z,98204.94
2023-04-27T11:06:10.326Z,98276.47
2023-04-27T11:08:56.614Z,98235.53
2023-04-27T11:11:49.084Z,98102.25
2023-04-27T11:14:36.872Z,98198.78
2023-04-27T11:17:29.966Z,98114.97
2023-04-27T11:20:24.733Z,98124.94
2023-04-27T11:23:11.214Z,98166.44
2023-04-27T11:25:57.726Z,98278.25
2023-04-27T11:28:46.318Z,98237.94
2023-04-27T11:32:01.845Z,98277.53
2023-04-27T11:35:01.984Z,98241.38
2023-04-27T11:37:58.421Z,98261.53
2023-04-27T11:40:47.201Z,98275.50
2023-04-27T11:43:34.593Z,98276.59
2023-04-27T11:46:22.303Z,98123.19
2023-04-27T11:49:11.844Z,98271.72
2023-04-27T11:51:58.724Z,98194.06
2023-04-27T11:54:53.184Z,98266.38
2023-04-27T11:57:38.987Z,98079.13
2023-04-27T12:00:25.508Z,98254.53
2023-04-27T12:03:11.469Z,98250.72
2023-04-27T12:08:43.722Z,98264.47
2023-04-27T12:11:29.043Z,98289.22
2023-04-27T12:14:14.837Z,98269.88
2023-04-27T12:17:01.010Z,98269.88
2023-04-27T12:19:46.724Z,98285.06
2023-04-27T12:22:32.597Z,98228.91
2023-04-27T12:25:20.073Z,98109.94
2023-04-27T12:28:06.230Z,98273.41
2023-04-27T12:30:52.639Z,98261.72
2023-04-27T12:33:38.537Z,98212.00
2023-04-27T12:36:23.993Z,98103.50
2023-04-27T12:39:27.611Z,98265.25
2023-04-27T12:42:13.047Z,98272.72
2023-04-27T12:44:58.541Z,98201.25
2023-04-27T12:48:01.192Z,98264.97
2023-04-27T12:50:48.556Z,98212.00
2023-04-27T12:53:33.870Z,98272.41
2023-04-27T12:56:19.722Z,98206.03
2023-04-27T12:59:06.270Z,98240.97
2023-04-27T13:01:52.074Z,98230.88
2023-04-27T13:04:37.614Z,98241.69
2023-04-27T13:07:23.372Z,98265.59
2023-04-27T13:10:09.413Z,98242.03
2023-04-27T13:12:54.927Z,98233.22
2023-04-27T13:15:40.348Z,98234.63
2023-04-27T13:18:26.137Z,98142.69
2023-04-27T13:21:11.502Z,98241.78
2023-04-27T13:23:59.539Z,98112.19
2023-04-27T13:26:46.520Z,98274.19
2023-04-27T13:29:33.483Z,98286.41
2023-04-27T13:32:20.308Z,98158.59
2023-04-27T13:35:06.142Z,98279.84
2023-04-27T13:37:53.833Z,98196.28
2023-04-27T13:40:39.939Z,98152.66
2023-04-27T13:43:27.097Z,98287.25
2023-04-27T13:46:13.777Z,98141.22
2023-04-27T13:48:59.339Z,98222.19
2023-04-27T13:51:44.773Z,98291.59
2023-04-27T13:54:30.459Z,98268.19
2023-04-27T13:57:16.213Z,98288.31
2023-04-27T14:00:01.967Z,98268.00
2023-04-27T14:02:52.753Z,98272.38
2023-04-27T14:05:38.783Z,98292.00
2023-04-27T14:08:24.250Z,98265.38
2023-04-27T14:11:13.126Z,98238.47
2023-04-27T14:13:58.941Z,98290.81
2023-04-27T14:16:44.380Z,98129.66
2023-04-27T14:19:31.622Z,98295.13
2023-04-27T14:22:17.515Z,98266.88
2023-04-27T14:25:03.019Z,98191.66
2023-04-27T14:27:48.493Z,98233.06
2023-04-27T14:30:34.866Z,98136.78
2023-04-27T14:33:21.008Z,98320.72
2023-04-27T14:36:07.059Z,98315.09
2023-04-27T14:38:52.755Z,98315.50
2023-04-27T14:41:38.150Z,98324.81
2023-04-27T14:44:24.194Z,98313.94
2023-04-27T14:47:09.988Z,98163.59
2023-04-27T14:49:55.977Z,98331.41
2023-04-27T14:52:41.358Z,98155.72
2023-04-27T14:55:27.222Z,98304.53
2023-04-27T14:58:16.939Z,98323.97
2023-04-27T15:01:06.606Z,98361.31
2023-04-27T15:03:56.066Z,98334.75
2023-04-27T15:06:43.555Z,98323.50
2023-04-27T15:09:29.533Z,98288.88
2023-04-27T15:12:15.482Z,98334.41
2023-04-27T15:15:00.848Z,98356.09
2023-04-27T15:17:46.313Z,98374.19
2023-04-27T15:20:32.201Z,98297.59
2023-04-27T15:23:18.353Z,98315.03
2023-04-27T15:26:04.185Z,98198.94
2023-04-27T15:28:49.611Z,98169.69
2023-04-27T15:31:35.326Z,98205.28
2023-04-27T15:34:21.143Z,98325.63
2023-04-27T15:37:07.925Z,98348.16
2023-04-27T15:39:54.383Z,98230.69
2023-04-27T15:42:40.048Z,98360.19
2023-04-27T15:45:25.609Z,98200.88
2023-04-27T15:48:12.161Z,98321.56
2023-04-27T15:50:57.514Z,98367.53
2023-04-27T15:53:43.006Z,98311.47
2023-04-27T15:56:30.583Z,98350.91
2023-04-27T15:59:26.319Z,98321.72
2023-04-27T16:02:13.613Z,98297.38
2023-04-27T16:04:59.818Z,98370.16
2023-04-27T16:07:46.435Z,98389.06
2023-04-27T16:10:31.599Z,98245.88
2023-04-27T16:13:16.901Z,98218.81
2023-04-27T16:16:02.602Z,98377.41
2023-04-27T16:18:48.215Z,98348.28
2023-04-27T16:21:34.179Z,98399.44
2023-04-27T16:24:19.864Z,98219.22
2023-04-27T16:27:05.591Z,98368.47
2023-04-27T16:29:50.919Z,98272.81
2023-04-27T16:32:37.771Z,98365.06
2023-04-27T16:35:23.645Z,98399.00
2023-04-27T16:38:09.063Z,98366.19
2023-04-27T16:40:56.075Z,98394.59
2023-04-27T16:43:41.526Z,98403.13
2023-04-27T16:46:27.032Z,98404.97
2023-04-27T16:49:12.773Z,98408.16
2023-04-27T16:51:58.579Z,98329.47
2023-04-27T16:54:43.968Z,98331.72
2023-04-27T16:57:29.546Z,98330.06
2023-04-27T17:00:15.351Z,98274.06
2023-04-27T17:03:01.091Z,98412.63
2023-04-27T17:05:46.851Z,98252.09
2023-04-27T17:08:32.200Z,98404.41
2023-04-27T17:11:19.252Z,98277.34
2023-04-27T17:14:04.837Z,98426.41
2023-04-27T17:16:51.147Z,98390.03
2023-04-27T17:19:36.879Z,98419.72
2023-04-27T17:22:22.216Z,98278.78
2023-04-27T17:25:09.354Z,98422.84
2023-04-27T17:27:55.460Z,98392.06
2023-04-27T17:30:42.539Z,98334.06
2023-04-27T17:33:28.594Z,98415.44
2023-04-27T17:36:19.842Z,98442.66
2023-04-27T17:39:14.776Z,98392.56
2023-04-27T17:42:02.997Z,98450.97
2023-04-27T17:45:03.049Z,98447.88
2023-04-27T17:47:58.392Z,98459.00
2023-04-27T17:50:45.002Z,98457.06
2023-04-27T17:53:32.086Z,98427.16
2023-04-27T17:56:18.554Z,98453.84
2023-04-27T17:59:05.438Z,98442.88
2023-04-27T18:01:51.438Z,98468.84
2023-04-27T18:04:37.219Z,98326.59
2023-04-27T18:07:23.550Z,98443.22
2023-04-27T18:10:09.621Z,98422.19
2023-04-27T18:12:55.548Z,98407.47
2023-04-27T18:15:41.034Z,98417.41
2023-04-27T18:18:27.152Z,98420.34
2023-04-27T18:21:12.577Z,98481.59
2023-04-27T18:23:58.162Z,98465.53
2023-04-27T18:26:44.510Z,98481.34
2023-04-27T18:29:30.523Z,98306.03
2023-04-27T18:32:18.725Z,98485.78
2023-04-27T18:35:07.038Z,98340.56
2023-04-27T18:37:52.107Z,98449.78
2023-04-27T18:40:37.608Z,98506.56
2023-04-27T18:43:22.986Z,98505.31
2023-04-27T18:46:08.906Z,98504.94
2023-04-27T18:48:54.690Z,98507.16
2023-04-27T18:51:40.074Z,98493.22
2023-04-27T18:54:25.635Z,98509.41
2023-04-27T18:57:11.460Z,98510.88
2023-04-27T18:59:57.283Z,98480.00
2023-04-27T19:02:43.221Z,98533.00
2023-04-27T19:05:28.521Z,98481.09
2023-04-27T19:08:14.387Z,98531.91
2023-04-27T19:11:00.404Z,98533.00
2023-04-27T19:13:45.794Z,98507.25
2023-04-27T19:16:31.384Z,98515.41
2023-04-27T19:19:18.886Z,98516.81
2023-04-27T19:22:05.810Z,98372.47
2023-04-27T19:24:51.384Z,98528.94
2023-04-27T19:27:37.049Z,98530.06
2023-04-27T19:30:23.153Z,98371.91
2023-04-27T19:33:09.558Z,98528.75
2023-04-27T19:35:55.354Z,98525.66
2023-04-27T19:38:41.201Z,98545.59
2023-04-27T19:41:26.735Z,98387.72
2023-04-27T19:44:12.646Z,98538.22
2023-04-27T19:46:58.289Z,98535.84
2023-04-27T19:49:43.657Z,98548.56
2023-04-27T19:52:30.110Z,98406.50
2023-04-27T19:55:16.053Z,98493.38
2023-04-27T19:58:01.615Z,98557.81
2023-04-27T20:00:47.133Z,98522.28
2023-04-27T20:03:32.782Z,98554.13
2023-04-27T20:06:20.157Z,98378.53
2023-04-27T20:09:05.512Z,98559.63
2023-04-27T20:11:51.217Z,98389.97
2023-04-27T20:14:38.555Z,98558.56
2023-04-27T20:17:27.336Z,98477.56
2023-04-27T20:20:13.021Z,98540.72
2023-04-27T20:22:58.465Z,98565.00
2023-04-27T20:25:43.659Z,98393.06
2023-04-27T20:28:30.452Z,98392.13
2023-04-27T20:31:16.497Z,98570.38
2023-04-27T20:34:01.932Z,98465.75
2023-04-27T20:36:47.565Z,98526.50
2023-04-27T20:39:33.087Z,98384.44
2023-04-27T20:42:18.315Z,98385.34
2023-04-27T20:45:05.601Z,98450.84
2023-04-27T20:47:52.210Z,98553.78
2023-04-27T20:50:39.405Z,98546.94
2023-04-27T20:53:26.169Z,98386.44
2023-04-27T20:56:12.043Z,98560.41
2023-04-27T20:58:57.621Z,98486.72
2023-04-27T21:01:43.375Z,98571.47
2023-04-27T21:04:28.873Z,98567.06
2023-04-27T21:07:15.066Z,98533.69
2023-04-27T21:10:06.011Z,98543.47
2023-04-27T21:12:51.694Z,98574.75
2023-04-27T21:15:38.247Z,98564.66
2023-04-27T21:21:14.412Z,98516.38
2023-04-27T21:24:19.510Z,98396.53
2023-04-27T21:27:04.974Z,98530.91
2023-04-27T21:29:50.366Z,98417.88
2023-04-27T21:32:35.622Z,98414.03
2023-04-27T21:35:21.338Z,98548.59
2023-04-27T21:38:06.858Z,98538.44
2023-04-27T21:40:52.179Z,98557.06
2023-04-27T21:43:41.849Z,98579.16
2023-04-27T21:46:27.095Z,98443.97
2023-04-27T21:49:12.389Z,98458.50
2023-04-27T21:51:57.904Z,98589.47
2023-04-27T21:54:43.249Z,98442.31
2023-04-27T21:57:30.893Z,98589.44
2023-04-27T22:00:18.048Z,98570.66
2023-04-27T22:03:03.954Z,98590.91
2023-04-27T22:05:50.331Z,98409.66
2023-04-27T22:08:35.808Z,98611.50
2023-04-27T22:11:21.320Z,98562.84
2023-04-27T22:14:06.804Z,98442.53
2023-04-27T22:16:52.186Z,98594.13
2023-04-27T22:19:37.980Z,98535.88
2023-04-27T22:22:23.357Z,98614.34
2023-04-27T22:25:10.708Z,98597.41
2023-04-27T22:27:56.218Z,98489.75
2023-04-27T22:30:42.316Z,98588.94
2023-04-27T22:33:27.647Z,98403.19
2023-04-27T22:36:13.628Z,98591.00
2023-04-27T22:38:59.336Z,98590.88
2023-04-27T22:41:46.265Z,98382.13
2023-04-27T22:44:31.974Z,98561.94
2023-04-27T22:47:18.100Z,98610.00
2023-04-27T22:50:04.791Z,98599.72
2023-04-27T22:52:52.976Z,98443.09
2023-04-27T22:55:38.617Z,98593.84
2023-04-27T22:58:24.033Z,98600.47
2023-04-27T23:01:09.534Z,98470.72
2023-04-27T23:03:55.110Z,98422.66
2023-04-27T23:06:42.016Z,98539.25
2023-04-27T23:09:27.789Z,98421.78
2023-04-27T23:12:13.856Z,98463.56
2023-04-27T23:14:59.253Z,98496.88
2023-04-27T23:17:44.852Z,98589.78
2023-04-27T23:20:30.057Z,98444.56
2023-04-27T23:23:15.549Z,98443.81
2023-04-27T23:26:01.616Z,98439.00
2023-04-27T23:28:47.974Z,98614.25
2023-04-27T23:31:33.444Z,98500.53
2023-04-27T23:34:19.050Z,98579.75
2023-04-27T23:37:04.747Z,98625.09
2023-04-27T23:39:50.754Z,98438.63
2023-04-27T23:42:36.152Z,98468.81
2023-04-27T23:45:21.524Z,98506.59
2023-04-27T23:48:06.953Z,98609.28
2023-04-27T23:51:03.039Z,98520.59
2023-04-27T23:53:48.361Z,98612.94
2023-04-27T23:56:33.975Z,98570.34
2023-04-27T23:59:19.767Z,98607.34
